Strona główna
METAR-TAF:

METAR-TAF

Lotnisko :

Port lotniczy Mauritius

Mauritius, Mauritius

Szerokość geograficzna: 20-26S, Długość geograficzna: 057-40E, wysokość: 55 m

Aktualna obserwacja pogody

Raport powstał 53 minut temu, godzina 00:00 UTC
Wiatr 10 kt od wschód
Temperatura 23°C
Wilgotność 65%
Ciśnienie 1023 hPa
Widzialność 10 km lub więcej
Mało chmury na wysokości 1900 ft

METAR: FIMP 260000Z 10010KT 9999 FEW019 23/16 Q1023

czas: 04:53 (00:53 UTC)

Prognoza

Raport powstał 1 godzina i 53 minut temu, godzina 23:00 UTC
Prognoza ważna od 26 godzina 00 UTC do 27 godzina 06 UTC
Wiatr 10 kt od wschód
Widzialność 10 km lub więcej
Rozproszone chmury na wysokości 1700 ft

TAF: FIMP 252300Z 2600/2706 10010KT 9999 SCT017

Obserwacja i prognoza pogody dla ponad 4000 lotnisk (raport METAR i TAF).

Dostępne stacje oznaczono żółtymi i czerwonymi punktami na mapie.

Najedź kursorem aby zobaczyć nazwę stacji.

Kliknij aby zobaczyć obserwacje i prognozy pogody.

Aby zmienić mapę: kliknij na zielony przycisk z czarnym krzyżykiem, aby powiększyć; na zielony przycisk z myślnikiem, aby pomniejszyć; na zielone strzałki, aby przejść do map sąsiednich.


METAR-TAF: